createdAt,value
2019-03-20T00:00:55.065Z,102894.64
2019-03-20T00:03:23.666Z,102885.05
2019-03-20T00:05:52.657Z,102880.90
2019-03-20T00:08:21.957Z,102881.09
2019-03-20T00:10:50.619Z,102879.33
2019-03-20T00:13:19.268Z,102878.17
2019-03-20T00:15:48.226Z,102888.16
2019-03-20T00:18:16.887Z,102884.45
2019-03-20T00:20:45.627Z,102889.15
2019-03-20T00:23:14.401Z,102879.47
2019-03-20T00:25:43.378Z,102890.14
2019-03-20T00:28:12.000Z,102884.45
2019-03-20T00:30:41.161Z,102882.55
2019-03-20T00:33:09.885Z,102880.78
2019-03-20T00:35:38.837Z,102879.28
2019-03-20T00:38:07.569Z,102880.86
2019-03-20T00:40:36.220Z,102877.25
2019-03-20T00:43:05.213Z,102872.11
2019-03-20T00:45:34.508Z,102875.34
2019-03-20T00:48:03.197Z,102878.45
2019-03-20T00:50:32.086Z,102871.83
2019-03-20T00:53:01.384Z,102872.22
2019-03-20T00:55:30.065Z,102881.59
2019-03-20T00:57:58.696Z,102880.45
2019-03-20T01:00:27.751Z,102883.50
2019-03-20T01:02:56.643Z,102880.95
2019-03-20T01:05:25.262Z,102886.55
2019-03-20T01:07:54.228Z,102882.59
2019-03-20T01:10:22.928Z,102878.36
2019-03-20T01:12:51.732Z,102883.41
2019-03-20T01:15:20.445Z,102876.77
2019-03-20T01:17:49.478Z,102878.07
2019-03-20T01:20:19.597Z,102873.44
2019-03-20T01:22:48.665Z,102871.38
2019-03-20T01:25:17.480Z,102861.11
2019-03-20T01:27:46.597Z,102860.56
2019-03-20T01:30:35.746Z,102868.39
2019-03-20T01:33:06.378Z,102862.92
2019-03-20T01:35:35.069Z,102854.36
2019-03-20T01:38:04.485Z,102861.56
2019-03-20T01:40:33.209Z,102866.38
2019-03-20T01:43:02.150Z,102868.76
2019-03-20T01:45:31.231Z,102865.19
2019-03-20T01:48:00.300Z,102867.92
2019-03-20T01:50:29.643Z,102871.98
2019-03-20T01:52:58.533Z,102870.83
2019-03-20T01:55:27.755Z,102872.03
2019-03-20T01:57:56.459Z,102871.33
2019-03-20T02:00:25.235Z,102871.93
2019-03-20T02:02:54.203Z,102863.81
2019-03-20T02:05:23.094Z,102851.79
2019-03-20T02:07:51.749Z,102856.20
2019-03-20T02:10:21.084Z,102864.91
2019-03-20T02:12:49.771Z,102862.38
2019-03-20T02:15:18.472Z,102858.17
2019-03-20T02:17:47.168Z,102852.34
2019-03-20T02:20:16.543Z,102850.11
2019-03-20T02:22:45.437Z,102852.22
2019-03-20T02:25:14.429Z,102856.66
2019-03-20T02:27:43.428Z,102860.98
2019-03-20T02:30:14.743Z,102862.89
2019-03-20T02:32:43.773Z,102855.18
2019-03-20T02:35:12.675Z,102862.98
2019-03-20T02:37:41.657Z,102871.36
2019-03-20T02:40:10.732Z,102878.33
2019-03-20T02:42:39.713Z,102875.80
2019-03-20T02:45:10.459Z,102883.47
2019-03-20T02:47:39.140Z,102892.52
2019-03-20T02:50:08.257Z,102897.80
2019-03-20T02:52:37.666Z,102891.47
2019-03-20T02:55:07.253Z,102888.50
2019-03-20T02:57:35.967Z,102889.77
2019-03-20T03:00:06.637Z,102886.85
2019-03-20T03:02:35.689Z,102892.88
2019-03-20T03:05:05.359Z,102892.43
2019-03-20T03:07:34.285Z,102884.13
2019-03-20T03:10:03.702Z,102877.61
2019-03-20T03:12:32.684Z,102878.89
2019-03-20T03:15:01.319Z,102870.49
2019-03-20T03:17:29.970Z,102871.93
2019-03-20T03:19:58.599Z,102865.78
2019-03-20T03:22:27.261Z,102862.84
2019-03-20T03:24:55.959Z,102856.84
2019-03-20T03:27:24.906Z,102863.07
2019-03-20T03:29:53.616Z,102869.39
2019-03-20T03:32:22.833Z,102866.83
2019-03-20T03:34:51.821Z,102873.49
2019-03-20T03:37:20.468Z,102865.15
2019-03-20T03:39:49.362Z,102866.82
2019-03-20T03:42:17.997Z,102865.20
2019-03-20T03:44:46.681Z,102867.30
2019-03-20T03:47:15.654Z,102864.95
2019-03-20T03:49:44.302Z,102866.15
2019-03-20T03:52:13.514Z,102866.22
2019-03-20T03:54:42.170Z,102872.12
2019-03-20T03:57:10.766Z,102866.41
2019-03-20T03:59:39.797Z,102867.10
2019-03-20T04:02:08.540Z,102860.20
2019-03-20T04:04:37.269Z,102852.91
2019-03-20T04:07:06.354Z,102858.03
2019-03-20T04:09:35.346Z,102858.81
2019-03-20T04:12:04.150Z,102854.08
2019-03-20T04:14:33.125Z,102851.00
2019-03-20T04:17:01.790Z,102857.18
2019-03-20T04:19:30.446Z,102860.05
2019-03-20T04:21:59.492Z,102854.13
2019-03-20T04:24:28.173Z,102849.52
2019-03-20T04:26:57.168Z,102854.70
2019-03-20T04:29:25.823Z,102850.17
2019-03-20T04:31:54.748Z,102850.16
2019-03-20T04:34:23.781Z,102851.72
2019-03-20T04:36:52.740Z,102849.27
2019-03-20T04:39:21.454Z,102840.59
2019-03-20T04:41:50.411Z,102841.70
2019-03-20T04:44:19.325Z,102843.44
2019-03-20T04:46:48.306Z,102849.77
2019-03-20T04:49:17.294Z,102852.33
2019-03-20T04:51:46.289Z,102855.42
2019-03-20T04:54:15.221Z,102854.89
2019-03-20T04:56:43.848Z,102855.81
2019-03-20T04:59:12.776Z,102851.69
2019-03-20T05:01:41.479Z,102854.40
2019-03-20T05:04:10.745Z,102858.71
2019-03-20T05:06:39.365Z,102852.80
2019-03-20T05:09:08.627Z,102848.46
2019-03-20T05:11:37.551Z,102846.44
2019-03-20T05:14:06.293Z,102839.38
2019-03-20T05:16:34.964Z,102841.09
2019-03-20T05:19:03.911Z,102834.84
2019-03-20T05:21:32.773Z,102828.73
2019-03-20T05:24:01.428Z,102820.91
2019-03-20T05:26:30.065Z,102824.17
2019-03-20T05:28:58.752Z,102830.80
2019-03-20T05:31:27.828Z,102827.13
2019-03-20T05:33:56.740Z,102826.45
2019-03-20T05:36:25.719Z,102821.30
2019-03-20T05:38:54.384Z,102818.16
2019-03-20T05:41:23.566Z,102820.31
2019-03-20T05:43:52.217Z,102820.06
2019-03-20T05:46:20.938Z,102818.87
2019-03-20T05:48:49.900Z,102823.94
2019-03-20T05:51:18.578Z,102822.05
2019-03-20T05:53:47.250Z,102829.25
2019-03-20T05:56:15.920Z,102827.14
2019-03-20T05:58:44.529Z,102823.42
2019-03-20T06:01:13.818Z,102819.49
2019-03-20T06:03:42.823Z,102827.70
2019-03-20T06:06:11.447Z,102825.39
2019-03-20T06:08:40.389Z,102826.82
2019-03-20T06:11:09.379Z,102820.71
2019-03-20T06:13:38.034Z,102836.61
2019-03-20T06:16:06.718Z,102840.84
2019-03-20T06:18:35.699Z,102836.20
2019-03-20T06:21:04.830Z,102851.30
2019-03-20T06:23:33.835Z,102842.33
2019-03-20T06:26:02.497Z,102849.91
2019-03-20T06:28:31.723Z,102852.38
2019-03-20T06:31:00.712Z,102851.55
2019-03-20T06:33:29.374Z,102861.50
2019-03-20T06:35:58.277Z,102854.68
2019-03-20T06:38:26.951Z,102867.63
2019-03-20T06:40:55.579Z,102870.22
2019-03-20T06:43:24.552Z,102864.41
2019-03-20T06:45:53.606Z,102864.52
2019-03-20T06:48:22.556Z,102867.78
2019-03-20T06:50:51.508Z,102866.79
2019-03-20T06:53:20.845Z,102859.86
2019-03-20T06:55:50.134Z,102868.88
2019-03-20T06:58:19.038Z,102874.59
2019-03-20T07:00:57.893Z,102867.79
2019-03-20T07:04:06.750Z,102874.59
2019-03-20T07:06:58.385Z,102869.37
2019-03-20T07:09:35.560Z,102876.38
2019-03-20T07:12:04.486Z,102865.77
2019-03-20T07:14:33.130Z,102863.91
2019-03-20T07:17:01.775Z,102864.58
2019-03-20T07:19:30.755Z,102860.90
2019-03-20T07:21:59.748Z,102861.79
2019-03-20T07:24:28.368Z,102856.20
2019-03-20T07:26:57.376Z,102865.22
2019-03-20T07:29:26.020Z,102862.52
2019-03-20T07:31:54.751Z,102869.93
2019-03-20T07:34:24.006Z,102866.50
2019-03-20T07:36:53.016Z,102853.25
2019-03-20T07:39:21.647Z,102854.76
2019-03-20T07:41:50.973Z,102863.95
2019-03-20T07:44:19.976Z,102868.56
2019-03-20T07:46:48.607Z,102865.95
2019-03-20T07:49:17.271Z,102861.48
2019-03-20T07:51:46.226Z,102862.51
2019-03-20T07:54:15.433Z,102862.51
2019-03-20T07:56:44.051Z,102851.84
2019-03-20T07:59:13.021Z,102851.84
2019-03-20T08:01:42.001Z,102855.48
2019-03-20T08:04:10.672Z,102858.99
2019-03-20T08:06:39.721Z,102858.99
2019-03-20T08:09:08.891Z,102858.83
2019-03-20T08:11:37.562Z,102874.35
2019-03-20T08:14:06.294Z,102883.80
2019-03-20T08:16:35.272Z,102883.80
2019-03-20T08:19:04.021Z,102890.89
2019-03-20T08:21:33.032Z,102875.80
2019-03-20T08:24:01.689Z,102875.80
2019-03-20T08:26:30.329Z,102884.37
2019-03-20T08:28:58.999Z,102893.66
2019-03-20T08:31:27.673Z,102881.78
2019-03-20T08:33:56.673Z,102884.19
2019-03-20T08:36:25.969Z,102875.80
2019-03-20T08:38:54.675Z,102868.19
2019-03-20T08:41:23.379Z,102878.49
2019-03-20T08:43:52.641Z,102878.49
2019-03-20T08:46:21.855Z,102877.86
2019-03-20T08:48:50.831Z,102894.16
2019-03-20T08:51:20.030Z,102894.16
2019-03-20T08:53:49.081Z,102882.56
2019-03-20T08:56:18.028Z,102881.95
2019-03-20T08:58:47.014Z,102890.81
2019-03-20T09:01:27.892Z,102867.86
2019-03-20T09:03:47.363Z,102867.17
2019-03-20T09:06:16.947Z,102866.48
2019-03-20T09:08:46.163Z,102862.52
2019-03-20T09:11:15.699Z,102864.55
2019-03-20T09:13:44.664Z,102866.02
2019-03-20T09:16:13.657Z,102859.77
2019-03-20T09:18:42.653Z,102858.86
2019-03-20T09:21:11.540Z,102872.97
2019-03-20T09:23:40.938Z,102860.31
2019-03-20T09:26:10.155Z,102860.31
2019-03-20T09:28:39.142Z,102865.08
2019-03-20T09:31:07.830Z,102836.70
2019-03-20T09:33:36.819Z,102844.09
2019-03-20T09:36:05.811Z,102844.09
2019-03-20T09:38:42.929Z,102828.69
2019-03-20T09:41:05.236Z,102835.75
2019-03-20T09:43:34.450Z,102850.55
2019-03-20T09:46:03.145Z,102848.38
2019-03-20T09:48:31.777Z,102842.06
2019-03-20T09:51:00.444Z,102836.55
2019-03-20T09:53:29.691Z,102851.98
2019-03-20T09:55:58.576Z,102851.96
2019-03-20T09:58:27.526Z,102838.00
2019-03-20T10:00:56.769Z,102847.32
2019-03-20T10:03:25.408Z,102842.55
2019-03-20T10:05:54.339Z,102864.32
2019-03-20T10:08:22.964Z,102851.09
2019-03-20T10:10:51.588Z,102850.20
2019-03-20T10:13:20.236Z,102855.23
2019-03-20T10:15:49.305Z,102846.95
2019-03-20T10:18:18.503Z,102861.24
2019-03-20T10:20:47.274Z,102849.96
2019-03-20T10:23:15.955Z,102869.55
2019-03-20T10:25:45.153Z,102869.55
2019-03-20T10:28:13.796Z,102857.88
2019-03-20T10:30:42.752Z,102857.88
2019-03-20T10:33:11.759Z,102850.78
2019-03-20T10:35:49.926Z,102876.27
2019-03-20T10:38:11.369Z,102871.38
2019-03-20T10:40:40.301Z,102871.38
2019-03-20T10:43:09.561Z,102863.94
2019-03-20T10:45:38.758Z,102873.87
2019-03-20T10:48:07.762Z,102865.26
2019-03-20T10:50:36.433Z,102873.80
2019-03-20T10:53:05.437Z,102869.97
2019-03-20T10:55:34.430Z,102856.47
2019-03-20T10:58:03.425Z,102856.48
2019-03-20T11:00:32.516Z,102865.64
2019-03-20T11:03:01.237Z,102848.48
2019-03-20T11:05:30.203Z,102851.65
2019-03-20T11:07:59.613Z,102855.05
2019-03-20T11:10:28.336Z,102855.52
2019-03-20T11:12:57.494Z,102853.30
2019-03-20T11:15:26.307Z,102856.92
2019-03-20T11:17:55.021Z,102859.63
2019-03-20T11:20:24.464Z,102856.86
2019-03-20T11:22:53.464Z,102866.75
2019-03-20T11:25:22.456Z,102860.47
2019-03-20T11:27:51.139Z,102863.44
2019-03-20T11:30:21.878Z,102873.73
2019-03-20T11:32:51.282Z,102885.69
2019-03-20T11:35:20.057Z,102881.84
2019-03-20T11:37:49.068Z,102877.89
2019-03-20T11:40:23.072Z,102883.64
2019-03-20T11:42:52.175Z,102879.81
2019-03-20T11:45:23.510Z,102901.64
2019-03-20T11:47:52.159Z,102893.88
2019-03-20T11:50:29.458Z,102880.44
2019-03-20T11:52:58.484Z,102886.78
2019-03-20T11:55:27.530Z,102875.35
2019-03-20T11:57:56.172Z,102869.47
2019-03-20T12:00:25.273Z,102877.64
2019-03-20T12:02:53.984Z,102865.16
2019-03-20T12:05:22.945Z,102863.19
2019-03-20T12:07:51.951Z,102863.19
2019-03-20T12:10:21.761Z,102861.74
2019-03-20T12:12:50.513Z,102858.14
2019-03-20T12:15:19.255Z,102858.14
2019-03-20T12:17:48.321Z,102858.61
2019-03-20T12:20:18.003Z,102858.61
2019-03-20T12:22:47.335Z,102861.53
2019-03-20T12:25:18.320Z,102870.85
2019-03-20T12:27:47.046Z,102875.48
2019-03-20T12:30:18.099Z,102880.83
2019-03-20T12:32:46.996Z,102870.17
2019-03-20T12:35:16.294Z,102885.14
2019-03-20T12:37:45.425Z,102882.39
2019-03-20T12:40:24.906Z,102888.42
2019-03-20T12:42:54.053Z,102887.53
2019-03-20T12:45:25.374Z,102874.34
2019-03-20T12:47:54.028Z,102878.08
2019-03-20T12:50:22.771Z,102881.94
2019-03-20T12:52:52.054Z,102864.07
2019-03-20T12:55:21.051Z,102868.34
2019-03-20T12:57:50.040Z,102866.83
2019-03-20T13:00:20.486Z,102855.12
2019-03-20T13:02:49.469Z,102863.25
2019-03-20T13:05:18.215Z,102853.22
2019-03-20T13:07:47.014Z,102848.84
2019-03-20T13:10:17.365Z,102848.95
2019-03-20T13:12:46.110Z,102857.42
2019-03-20T13:15:19.649Z,102839.54
2019-03-20T13:17:48.562Z,102839.54
2019-03-20T13:20:17.552Z,102840.72
2019-03-20T13:22:48.576Z,102842.12
2019-03-20T13:25:17.577Z,102839.72
2019-03-20T13:27:46.572Z,102824.77
2019-03-20T13:30:20.859Z,102828.82
2019-03-20T13:32:49.808Z,102817.19
2019-03-20T13:35:18.580Z,102826.98
2019-03-20T13:37:47.442Z,102820.13
2019-03-20T13:40:16.542Z,102811.73
2019-03-20T13:42:45.280Z,102820.22
2019-03-20T13:45:15.365Z,102804.86
2019-03-20T13:47:43.976Z,102811.11
2019-03-20T13:50:13.963Z,102803.78
2019-03-20T13:52:42.955Z,102800.02
2019-03-20T13:55:11.956Z,102814.90
2019-03-20T13:57:40.944Z,102795.80
2019-03-20T14:00:13.826Z,102814.56
2019-03-20T14:02:42.448Z,102801.39
2019-03-20T14:05:11.511Z,102806.16
2019-03-20T14:07:40.399Z,102802.59
2019-03-20T14:10:10.647Z,102801.06
2019-03-20T14:12:39.298Z,102799.66
2019-03-20T14:15:09.393Z,102805.09
2019-03-20T14:17:38.420Z,102808.11
2019-03-20T14:20:09.674Z,102813.11
2019-03-20T14:22:38.332Z,102818.70
2019-03-20T14:25:07.448Z,102815.87
2019-03-20T14:27:36.345Z,102825.49
2019-03-20T14:30:07.507Z,102836.52
2019-03-20T14:32:36.484Z,102824.81
2019-03-20T14:35:05.679Z,102827.68
2019-03-20T14:37:34.678Z,102831.88
2019-03-20T14:40:03.491Z,102835.38
2019-03-20T14:42:32.114Z,102839.22
2019-03-20T14:45:01.295Z,102842.14
2019-03-20T14:47:30.349Z,102834.98
2019-03-20T14:49:59.331Z,102843.13
2019-03-20T14:52:28.327Z,102852.45
2019-03-20T14:54:56.977Z,102852.59
2019-03-20T14:57:25.620Z,102848.72
2019-03-20T14:59:54.322Z,102864.31
2019-03-20T15:02:22.974Z,102853.33
2019-03-20T15:04:51.967Z,102858.59
2019-03-20T15:07:21.066Z,102861.92
2019-03-20T15:09:49.833Z,102860.25
2019-03-20T15:12:18.842Z,102869.91
2019-03-20T15:14:47.490Z,102861.22
2019-03-20T15:17:16.132Z,102853.30
2019-03-20T15:19:45.111Z,102854.19
2019-03-20T15:22:14.407Z,102849.82
2019-03-20T15:24:43.399Z,102856.95
2019-03-20T15:27:12.167Z,102853.25
2019-03-20T15:29:40.845Z,102859.34
2019-03-20T15:32:09.608Z,102859.03
2019-03-20T15:34:38.378Z,102851.17
2019-03-20T15:37:07.083Z,102860.80
2019-03-20T15:39:35.729Z,102858.66
2019-03-20T15:42:04.827Z,102863.14
2019-03-20T15:44:33.815Z,102855.91
2019-03-20T15:47:02.439Z,102864.13
2019-03-20T15:49:31.394Z,102861.19
2019-03-20T15:52:00.052Z,102863.78
2019-03-20T15:54:28.780Z,102859.41
2019-03-20T15:56:57.968Z,102878.09
2019-03-20T15:59:26.613Z,102865.26
2019-03-20T16:01:56.359Z,102847.94
2019-03-20T16:04:25.392Z,102852.67
2019-03-20T16:06:54.001Z,102855.52
2019-03-20T16:09:22.952Z,102875.91
2019-03-20T16:11:51.932Z,102876.88
2019-03-20T16:14:20.922Z,102875.58
2019-03-20T16:16:50.123Z,102876.12
2019-03-20T16:19:19.531Z,102888.58
2019-03-20T16:21:48.537Z,102879.84
2019-03-20T16:24:17.177Z,102876.30
2019-03-20T16:26:46.300Z,102890.19
2019-03-20T16:29:15.221Z,102894.14
2019-03-20T16:31:44.186Z,102892.52
2019-03-20T16:34:13.238Z,102889.03
2019-03-20T16:36:41.983Z,102882.33
2019-03-20T16:39:10.962Z,102882.91
2019-03-20T16:41:39.642Z,102884.63
2019-03-20T16:44:08.539Z,102894.23
2019-03-20T16:46:37.455Z,102891.38
2019-03-20T16:49:06.222Z,102893.88
2019-03-20T16:51:34.974Z,102896.89
2019-03-20T16:54:03.909Z,102894.28
2019-03-20T16:56:32.594Z,102896.64
2019-03-20T16:59:01.923Z,102900.42
2019-03-20T17:01:30.569Z,102901.78
2019-03-20T17:03:59.977Z,102910.19
2019-03-20T17:06:28.970Z,102913.95
2019-03-20T17:08:57.862Z,102908.16
2019-03-20T17:11:37.941Z,102907.70
2019-03-20T17:13:57.108Z,102919.02
2019-03-20T17:16:25.807Z,102925.93
2019-03-20T17:18:54.756Z,102922.81
2019-03-20T17:21:23.957Z,102922.63
2019-03-20T17:23:52.623Z,102933.90
2019-03-20T17:26:21.324Z,102927.73
2019-03-20T17:28:50.632Z,102921.33
2019-03-20T17:31:19.829Z,102930.75
2019-03-20T17:33:48.720Z,102932.43
2019-03-20T17:36:17.618Z,102934.23
2019-03-20T17:38:46.308Z,102926.03
2019-03-20T17:41:14.982Z,102922.95
2019-03-20T17:43:43.611Z,102924.73
2019-03-20T17:46:12.256Z,102926.03
2019-03-20T17:48:40.880Z,102932.14
2019-03-20T17:51:11.086Z,102920.24
2019-03-20T17:53:40.374Z,102917.34
2019-03-20T17:56:09.671Z,102928.16
2019-03-20T17:58:38.964Z,102937.98
2019-03-20T18:01:07.612Z,102934.56
2019-03-20T18:03:36.664Z,102941.41
2019-03-20T18:06:05.389Z,102953.46
2019-03-20T18:08:34.426Z,102948.37
2019-03-20T18:11:03.454Z,102948.11
2019-03-20T18:13:32.106Z,102951.04
2019-03-20T18:16:01.005Z,102944.78
2019-03-20T18:18:29.636Z,102944.93
2019-03-20T18:20:58.251Z,102944.89
2019-03-20T18:23:26.876Z,102950.20
2019-03-20T18:25:55.491Z,102956.59
2019-03-20T18:28:24.144Z,102954.47
2019-03-20T18:30:52.803Z,102958.42
2019-03-20T18:33:21.406Z,102946.67
2019-03-20T18:35:50.352Z,102951.69
2019-03-20T18:38:19.017Z,102943.45
2019-03-20T18:40:47.952Z,102948.18
2019-03-20T18:43:16.670Z,102949.92
2019-03-20T18:45:45.384Z,102966.98
2019-03-20T18:48:14.098Z,102967.72
2019-03-20T18:50:43.532Z,102964.30
2019-03-20T18:53:12.223Z,102963.38
2019-03-20T18:55:40.907Z,102962.64
2019-03-20T18:58:09.590Z,102966.19
2019-03-20T19:00:38.256Z,102971.19
2019-03-20T19:03:07.021Z,102970.03
2019-03-20T19:05:45.591Z,102975.70
2019-03-20T19:08:14.681Z,102982.17
2019-03-20T19:10:43.446Z,102992.23
2019-03-20T19:13:12.163Z,102998.97
2019-03-20T19:15:41.047Z,103001.39
2019-03-20T19:18:10.250Z,103016.25
2019-03-20T19:20:39.232Z,103019.32
2019-03-20T19:23:08.129Z,103011.47
2019-03-20T19:25:37.120Z,103009.16
2019-03-20T19:28:05.820Z,103018.14
2019-03-20T19:30:34.452Z,103020.50
2019-03-20T19:33:03.384Z,103023.20
2019-03-20T19:35:32.391Z,103020.92
2019-03-20T19:38:01.486Z,103028.48
2019-03-20T19:40:30.217Z,103031.61
2019-03-20T19:42:59.403Z,103028.56
2019-03-20T19:45:28.067Z,103032.73
2019-03-20T19:47:57.049Z,103042.59
2019-03-20T19:50:25.778Z,103032.61
2019-03-20T19:52:54.794Z,103034.59
2019-03-20T19:55:23.523Z,103036.02
2019-03-20T19:57:52.508Z,103037.49
2019-03-20T20:00:21.316Z,103043.07
2019-03-20T20:02:50.290Z,103045.67
2019-03-20T20:05:18.928Z,103045.61
2019-03-20T20:07:47.896Z,103049.82
2019-03-20T20:10:17.095Z,103050.81
2019-03-20T20:12:46.159Z,103048.80
2019-03-20T20:15:17.349Z,103040.09
2019-03-20T20:17:47.114Z,103038.38
2019-03-20T20:20:17.856Z,103043.23
2019-03-20T20:22:46.951Z,103041.62
2019-03-20T20:25:16.056Z,103043.46
2019-03-20T20:27:44.773Z,103046.66
2019-03-20T20:30:15.464Z,103053.24
2019-03-20T20:32:44.557Z,103052.77
2019-03-20T20:35:13.578Z,103048.72
2019-03-20T20:37:42.990Z,103047.98
2019-03-20T20:40:13.994Z,103044.64
2019-03-20T20:42:43.476Z,103048.66
2019-03-20T20:45:12.537Z,103039.91
2019-03-20T20:47:41.900Z,103050.96
2019-03-20T20:50:11.210Z,103046.36
2019-03-20T20:52:40.086Z,103050.69
2019-03-20T20:55:10.319Z,103040.45
2019-03-20T20:57:38.952Z,103038.64
2019-03-20T21:00:11.927Z,103027.47
2019-03-20T21:02:40.891Z,103022.87
2019-03-20T21:05:09.613Z,103021.69
2019-03-20T21:07:38.285Z,103027.66
2019-03-20T21:10:07.667Z,103038.46
2019-03-20T21:12:36.592Z,103045.03
2019-03-20T21:15:05.638Z,103045.51
2019-03-20T21:17:56.967Z,103037.39
2019-03-20T21:20:26.142Z,103032.73
2019-03-20T21:23:37.359Z,103026.78
2019-03-20T21:26:06.596Z,103030.97
2019-03-20T21:29:15.601Z,103039.96
2019-03-20T21:31:49.036Z,103033.75
2019-03-20T21:35:01.576Z,103041.66
2019-03-20T21:38:13.402Z,103031.11
2019-03-20T21:41:36.254Z,103031.34
2019-03-20T21:44:31.344Z,103027.80
2019-03-20T21:47:17.031Z,103030.74
2019-03-20T21:49:46.746Z,103036.19
2019-03-20T21:52:16.146Z,103029.98
2019-03-20T21:55:28.474Z,103035.59
2019-03-20T21:58:09.670Z,103040.43
2019-03-20T22:01:18.653Z,103042.13
2019-03-20T22:03:47.840Z,103045.41
2019-03-20T22:06:54.143Z,103051.48
2019-03-20T22:10:16.546Z,103047.88
2019-03-20T22:13:04.999Z,103044.97
2019-03-20T22:15:52.582Z,103044.97
2019-03-20T22:19:02.417Z,103050.70
2019-03-20T22:22:04.994Z,103059.16
2019-03-20T22:25:10.181Z,103066.48
2019-03-20T22:28:15.286Z,103066.77
2019-03-20T22:30:44.578Z,103050.64
2019-03-20T22:33:49.603Z,103064.70
2019-03-20T22:36:26.188Z,103060.87
2019-03-20T22:39:41.151Z,103071.95
2019-03-20T22:42:34.839Z,103082.00
2019-03-20T22:45:25.027Z,103085.19
2019-03-20T22:48:34.930Z,103084.18
2019-03-20T22:51:37.152Z,103084.08
2019-03-20T22:54:47.181Z,103091.34
2019-03-20T22:57:30.926Z,103095.81
2019-03-20T23:00:00.135Z,103093.15
2019-03-20T23:02:37.148Z,103094.77
2019-03-20T23:05:07.759Z,103094.77
2019-03-20T23:07:37.262Z,103096.41
2019-03-20T23:10:09.960Z,103098.25
2019-03-20T23:12:39.133Z,103099.84
2019-03-20T23:15:11.107Z,103105.51
2019-03-20T23:17:40.612Z,103103.39
2019-03-20T23:20:12.272Z,103105.03
2019-03-20T23:22:41.760Z,103103.39
2019-03-20T23:25:11.592Z,103107.76
2019-03-20T23:27:41.091Z,103102.50
2019-03-20T23:30:15.110Z,103108.93
2019-03-20T23:32:44.607Z,103115.84
2019-03-20T23:35:14.112Z,103115.36
2019-03-20T23:37:43.662Z,103115.77
2019-03-20T23:40:13.984Z,103119.38
2019-03-20T23:42:44.271Z,103118.25
2019-03-20T23:45:15.012Z,103113.52
2019-03-20T23:47:56.951Z,103113.71
2019-03-20T23:50:26.507Z,103115.58
2019-03-20T23:52:55.666Z,103112.77
2019-03-20T23:55:25.257Z,103113.84
2019-03-20T23:57:54.419Z,103106.81
